createdAt,value
2019-06-10T00:00:13.802Z,50.59
2019-06-10T00:01:11.877Z,51.19
2019-06-10T00:02:10.902Z,51.39
2019-06-10T00:03:11.482Z,51.69
2019-06-10T00:04:12.491Z,51.39
2019-06-10T00:05:13.792Z,50.38
2019-06-10T00:06:11.516Z,50.59
2019-06-10T00:07:11.845Z,51.39
2019-06-10T00:08:11.822Z,51.69
2019-06-10T00:09:11.737Z,51.59
2019-06-10T00:10:10.774Z,51.79
2019-06-10T00:11:11.659Z,51.49
2019-06-10T00:12:12.375Z,51.39
2019-06-10T00:13:11.894Z,50.48
2019-06-10T00:14:10.718Z,50.38
2019-06-10T00:15:10.867Z,51.39
2019-06-10T00:16:11.508Z,51.89
2019-06-10T00:17:10.991Z,51.59
2019-06-10T00:18:33.313Z,51.79
2019-06-10T00:19:12.723Z,51.39
2019-06-10T00:20:11.205Z,51.49
2019-06-10T00:21:11.152Z,51.99
2019-06-10T00:22:11.534Z,52.39
2019-06-10T00:23:12.092Z,52.29
2019-06-10T00:24:11.797Z,51.99
2019-06-10T00:25:11.848Z,52.19
2019-06-10T00:26:12.187Z,50.59
2019-06-10T00:27:11.810Z,51.39
2019-06-10T00:28:12.139Z,51.39
2019-06-10T00:29:11.764Z,51.99
2019-06-10T00:30:12.086Z,52.09
2019-06-10T00:31:20.608Z,51.79
2019-06-10T00:32:21.320Z,51.69
2019-06-10T00:33:12.142Z,51.59
2019-06-10T00:34:12.096Z,51.89
2019-06-10T00:35:12.170Z,52.09
2019-06-10T00:36:21.371Z,52.01
2019-06-10T00:38:26.996Z,53.09
2019-06-10T00:39:27.010Z,53.72
2019-06-10T00:40:27.012Z,53.62
2019-06-10T00:41:26.932Z,53.22
2019-06-10T00:42:26.931Z,53.32
2019-06-10T00:43:26.929Z,52.42
2019-06-10T00:44:26.964Z,52.62
2019-06-10T00:45:26.942Z,53.52
2019-06-10T00:46:26.889Z,53.72
2019-06-10T00:47:26.899Z,53.82
2019-06-10T00:48:29.367Z,53.72
2019-06-10T00:49:27.904Z,54.33
2019-06-10T00:50:26.892Z,53.72
2019-06-10T00:51:26.914Z,53.52
2019-06-10T00:52:26.833Z,53.72
2019-06-10T00:53:26.848Z,53.72
2019-06-10T00:54:26.866Z,54.02
2019-06-10T00:55:26.843Z,54.63
2019-06-10T00:56:26.851Z,54.43
2019-06-10T00:57:26.808Z,54.02
2019-06-10T00:58:26.866Z,54.13
2019-06-10T00:59:26.757Z,54.13
2019-06-10T01:00:26.801Z,54.22
2019-06-10T01:01:26.762Z,54.53
2019-06-10T01:02:26.796Z,54.43
2019-06-10T01:03:26.724Z,54.25
2019-06-10T01:04:26.762Z,54.43
2019-06-10T01:05:26.705Z,54.55
2019-06-10T01:06:26.706Z,54.05
2019-06-10T01:08:43.776Z,54.43
2019-06-10T01:09:43.713Z,54.35
2019-06-10T01:10:44.354Z,54.65
2019-06-10T01:11:53.131Z,53.95
2019-06-10T01:12:43.681Z,53.95
2019-06-10T01:13:43.676Z,54.85
2019-06-10T01:14:43.656Z,55.05
2019-06-10T01:15:43.648Z,55.05
2019-06-10T01:16:43.645Z,55.05
2019-06-10T01:17:43.620Z,55.26
2019-06-10T01:18:43.660Z,55.96
2019-06-10T01:19:43.682Z,55.55
2019-06-10T01:20:43.635Z,55.35
2019-06-10T01:21:43.587Z,55.76
2019-06-10T01:22:43.637Z,55.86
2019-06-10T01:23:43.608Z,55.96
2019-06-10T01:24:43.589Z,55.76
2019-06-10T01:25:43.620Z,55.76
2019-06-10T01:26:43.547Z,55.58
2019-06-10T01:27:43.523Z,55.79
2019-06-10T01:28:43.649Z,55.48
2019-06-10T01:29:43.533Z,55.08
2019-06-10T01:30:43.524Z,55.38
2019-06-10T01:31:43.547Z,55.18
2019-06-10T01:32:43.538Z,55.58
2019-06-10T01:33:43.479Z,55.88
2019-06-10T01:34:43.446Z,56.09
2019-06-10T01:35:43.435Z,55.79
2019-06-10T01:36:43.495Z,55.48
2019-06-10T01:37:43.439Z,55.48
2019-06-10T01:38:43.423Z,55.18
2019-06-10T01:39:43.398Z,55.38
2019-06-10T01:40:43.428Z,54.88
2019-06-10T01:41:43.410Z,54.88
2019-06-10T01:42:43.381Z,55.99
2019-06-10T01:43:43.355Z,55.08
2019-06-10T01:44:43.351Z,55.28
2019-06-10T01:45:43.357Z,55.79
2019-06-10T01:46:43.328Z,55.58
2019-06-10T01:47:43.314Z,55.68
2019-06-10T01:48:47.855Z,55.58
2019-06-10T01:49:44.328Z,55.88
2019-06-10T01:50:43.322Z,55.38
2019-06-10T01:51:43.311Z,55.28
2019-06-10T01:52:43.284Z,54.88
2019-06-10T01:53:43.245Z,55.08
2019-06-10T01:54:43.249Z,55.58
2019-06-10T01:55:43.222Z,55.08
2019-06-10T01:56:43.270Z,55.08
2019-06-10T01:57:43.192Z,55.05
2019-06-10T01:58:43.184Z,55.08
2019-06-10T01:59:43.208Z,55.55
2019-06-10T02:00:43.182Z,55.35
2019-06-10T02:01:43.208Z,55.58
2019-06-10T02:02:44.532Z,54.75
2019-06-10T02:03:43.131Z,55.05
2019-06-10T02:04:43.147Z,55.46
2019-06-10T02:05:43.134Z,55.16
2019-06-10T02:06:43.123Z,54.15
2019-06-10T02:07:43.130Z,54.25
2019-06-10T02:08:43.078Z,54.25
2019-06-10T02:09:43.084Z,54.68
2019-06-10T02:10:43.099Z,53.55
2019-06-10T02:11:43.073Z,53.95
2019-06-10T02:12:43.069Z,53.57
2019-06-10T02:13:43.048Z,54.05
2019-06-10T02:14:43.022Z,54.08
2019-06-10T02:15:43.083Z,54.55
2019-06-10T02:16:43.018Z,53.85
2019-06-10T02:17:43.031Z,55.05
2019-06-10T02:18:56.879Z,54.17
2019-06-10T02:19:43.961Z,53.77
2019-06-10T02:20:42.963Z,54.25
2019-06-10T02:21:42.963Z,54.05
2019-06-10T02:22:42.952Z,53.95
2019-06-10T02:23:42.969Z,54.68
2019-06-10T02:24:42.920Z,54.17
2019-06-10T02:25:42.909Z,54.08
2019-06-10T02:26:42.917Z,53.55
2019-06-10T02:27:42.900Z,54.28
2019-06-10T02:28:42.900Z,54.58
2019-06-10T02:29:42.880Z,55.48
2019-06-10T02:30:50.845Z,56.19
2019-06-10T02:31:43.970Z,57.19
2019-06-10T02:32:43.087Z,58.33
2019-06-10T02:33:42.869Z,59.13
2019-06-10T02:35:00.868Z,59.43
2019-06-10T02:35:48.864Z,60.44
2019-06-10T02:36:44.585Z,60.27
2019-06-10T02:37:44.483Z,61.57
2019-06-10T02:38:44.409Z,61.27
2019-06-10T02:39:43.995Z,60.89
2019-06-10T02:40:43.515Z,61.50
2019-06-10T02:41:44.614Z,62.51
2019-06-10T02:42:43.608Z,62.68
2019-06-10T02:43:44.072Z,64.09
2019-06-10T02:44:44.577Z,64.82
2019-06-10T02:45:44.583Z,65.53
2019-06-10T02:46:43.976Z,66.03
2019-06-10T02:47:44.330Z,67.84
2019-06-10T02:48:43.656Z,69.56
2019-06-10T02:49:57.084Z,70.36
2019-06-10T02:50:44.283Z,70.39
2019-06-10T02:51:43.645Z,71.20
2019-06-10T02:52:44.499Z,72.04
2019-06-10T02:53:43.346Z,71.23
2019-06-10T02:54:43.823Z,71.23
2019-06-10T02:55:43.393Z,71.94
2019-06-10T02:56:44.217Z,73.55
2019-06-10T02:57:44.819Z,74.05
2019-06-10T02:58:44.833Z,75.56
2019-06-10T02:59:43.541Z,75.67
2019-06-10T03:00:48.116Z,75.60
2019-06-10T03:01:44.179Z,75.30
2019-06-10T03:02:45.131Z,76.71
2019-06-10T03:03:48.319Z,82.79
2019-06-10T03:04:43.483Z,84.15
2019-06-10T03:05:46.460Z,86.10
2019-06-10T03:06:44.820Z,86.00
2019-06-10T03:07:44.422Z,85.40
2019-06-10T03:08:43.629Z,85.34
2019-06-10T03:09:42.829Z,84.12
2019-06-10T03:10:44.256Z,85.38
2019-06-10T03:11:44.838Z,86.19
2019-06-10T03:12:42.529Z,86.53
2019-06-10T03:13:42.649Z,86.99
2019-06-10T03:14:42.439Z,86.83
2019-06-10T03:15:42.742Z,86.53
2019-06-10T03:16:42.400Z,86.02
2019-06-10T03:17:43.071Z,84.34
2019-06-10T03:18:43.399Z,83.94
2019-06-10T03:19:50.110Z,83.64
2019-06-10T03:20:43.331Z,84.04
2019-06-10T03:21:42.895Z,83.94
2019-06-10T03:22:42.451Z,84.04
2019-06-10T03:23:42.775Z,83.84
2019-06-10T03:24:42.305Z,83.74
2019-06-10T03:25:42.322Z,84.65
2019-06-10T03:26:42.803Z,83.94
2019-06-10T03:27:42.530Z,83.23
2019-06-10T03:28:42.769Z,83.33
2019-06-10T03:29:42.268Z,83.64
2019-06-10T03:30:53.359Z,83.13
2019-06-10T03:31:48.153Z,83.13
2019-06-10T03:32:47.093Z,84.04
2019-06-10T03:33:47.424Z,83.94
2019-06-10T03:34:47.448Z,83.94
2019-06-10T03:35:42.414Z,82.83
2019-06-10T03:36:42.958Z,82.62
2019-06-10T03:37:42.467Z,83.64
2019-06-10T03:38:43.204Z,83.64
2019-06-10T03:39:42.733Z,83.23
2019-06-10T03:40:43.412Z,83.64
2019-06-10T03:41:42.450Z,84.25
2019-06-10T03:42:42.814Z,84.55
2019-06-10T03:43:42.960Z,84.55
2019-06-10T03:44:43.083Z,84.34
2019-06-10T03:45:42.537Z,84.51
2019-06-10T03:46:43.166Z,84.31
2019-06-10T03:47:42.647Z,84.65
2019-06-10T03:48:43.332Z,84.41
2019-06-10T03:49:51.913Z,84.71
2019-06-10T03:50:43.207Z,84.51
2019-06-10T03:51:42.822Z,83.90
2019-06-10T03:52:43.176Z,84.41
2019-06-10T03:53:42.578Z,85.22
2019-06-10T03:54:43.232Z,85.28
2019-06-10T03:55:42.418Z,85.62
2019-06-10T03:56:43.017Z,85.17
2019-06-10T03:57:42.451Z,85.48
2019-06-10T03:58:43.159Z,85.42
2019-06-10T03:59:42.260Z,86.08
2019-06-10T04:00:43.045Z,85.17
2019-06-10T04:01:42.699Z,86.90
2019-06-10T04:02:43.057Z,86.99
2019-06-10T04:03:42.719Z,86.99
2019-06-10T04:04:42.984Z,86.99
2019-06-10T04:05:42.319Z,87.30
2019-06-10T04:06:44.179Z,87.30
2019-06-10T04:07:42.727Z,87.13
2019-06-10T04:08:43.259Z,86.93
2019-06-10T04:09:42.536Z,87.40
2019-06-10T04:10:42.950Z,87.04
2019-06-10T04:11:43.178Z,86.73
2019-06-10T04:12:43.449Z,86.33
2019-06-10T04:13:43.129Z,86.93
2019-06-10T04:14:42.052Z,87.04
2019-06-10T04:15:43.118Z,87.84
2019-06-10T04:16:43.310Z,87.84
2019-06-10T04:17:42.768Z,87.64
2019-06-10T04:18:43.016Z,87.44
2019-06-10T04:19:42.089Z,87.64
2019-06-10T04:20:42.923Z,87.84
2019-06-10T04:21:43.253Z,87.84
2019-06-10T04:22:41.662Z,87.04
2019-06-10T04:23:42.354Z,87.90
2019-06-10T04:24:43.102Z,87.84
2019-06-10T04:25:42.741Z,87.04
2019-06-10T04:26:43.473Z,87.24
2019-06-10T04:27:42.501Z,87.13
2019-06-10T04:28:42.978Z,87.04
2019-06-10T04:29:42.195Z,87.54
2019-06-10T04:30:43.297Z,87.95
2019-06-10T04:31:42.498Z,87.84
2019-06-10T04:32:42.950Z,88.04
2019-06-10T04:33:42.101Z,88.25
2019-06-10T04:34:43.295Z,87.44
2019-06-10T04:35:42.778Z,87.24
2019-06-10T04:36:42.248Z,87.54
2019-06-10T04:37:42.846Z,87.19
2019-06-10T04:38:43.225Z,87.24
2019-06-10T04:39:42.797Z,86.19
2019-06-10T04:40:43.067Z,86.69
2019-06-10T04:41:42.654Z,86.59
2019-06-10T04:42:43.483Z,86.29
2019-06-10T04:43:43.265Z,85.48
2019-06-10T04:44:42.289Z,85.48
2019-06-10T04:45:42.978Z,85.28
2019-06-10T04:46:42.825Z,84.47
2019-06-10T04:47:43.144Z,84.87
2019-06-10T04:48:42.710Z,85.44
2019-06-10T04:49:42.832Z,85.17
2019-06-10T04:50:45.974Z,84.12
2019-06-10T04:51:43.397Z,84.47
2019-06-10T04:52:43.146Z,84.27
2019-06-10T04:53:43.595Z,84.27
2019-06-10T04:54:42.135Z,85.08
2019-06-10T04:55:43.111Z,85.54
2019-06-10T04:56:42.868Z,84.83
2019-06-10T04:57:43.049Z,84.93
2019-06-10T04:58:43.282Z,84.37
2019-06-10T04:59:42.865Z,84.17
2019-06-10T05:00:42.905Z,83.76
2019-06-10T05:01:42.643Z,85.58
2019-06-10T05:02:43.036Z,85.68
2019-06-10T05:03:43.384Z,85.72
2019-06-10T05:04:42.595Z,85.93
2019-06-10T05:05:43.084Z,86.73
2019-06-10T05:06:42.252Z,86.43
2019-06-10T05:07:42.787Z,86.22
2019-06-10T05:08:42.681Z,85.88
2019-06-10T05:09:42.238Z,85.42
2019-06-10T05:10:42.401Z,85.72
2019-06-10T05:11:43.085Z,85.82
2019-06-10T05:12:43.203Z,86.33
2019-06-10T05:13:49.662Z,87.13
2019-06-10T05:14:52.539Z,87.24
2019-06-10T05:15:49.252Z,87.13
2019-06-10T05:16:43.074Z,87.13
2019-06-10T05:17:43.776Z,87.34
2019-06-10T05:18:42.373Z,87.13
2019-06-10T05:19:42.863Z,87.04
2019-06-10T05:20:54.005Z,87.04
2019-06-10T05:21:42.545Z,87.13
2019-06-10T05:22:42.486Z,87.04
2019-06-10T05:23:43.023Z,87.44
2019-06-10T05:24:42.430Z,87.13
2019-06-10T05:25:42.783Z,87.64
2019-06-10T05:26:42.545Z,87.84
2019-06-10T05:27:42.919Z,87.84
2019-06-10T05:28:43.317Z,87.95
2019-06-10T05:29:42.199Z,88.15
2019-06-10T05:30:42.601Z,88.85
2019-06-10T05:31:43.501Z,87.54
2019-06-10T05:32:42.993Z,87.24
2019-06-10T05:33:42.677Z,87.54
2019-06-10T05:34:43.523Z,87.74
2019-06-10T05:35:42.711Z,87.90
2019-06-10T05:36:43.300Z,87.90
2019-06-10T05:37:42.283Z,88.25
2019-06-10T05:38:43.193Z,87.90
2019-06-10T05:39:42.406Z,88.04
2019-06-10T05:40:42.768Z,88.25
2019-06-10T05:41:43.048Z,88.96
2019-06-10T05:42:42.656Z,88.75
2019-06-10T05:43:42.790Z,88.85
2019-06-10T05:44:42.921Z,88.75
2019-06-10T05:45:42.419Z,88.75
2019-06-10T05:46:43.290Z,88.45
2019-06-10T05:47:42.685Z,88.55
2019-06-10T05:48:40.768Z,89.16
2019-06-10T05:49:42.929Z,89.20
2019-06-10T05:50:42.760Z,88.65
2019-06-10T05:51:42.281Z,88.09
2019-06-10T05:52:42.740Z,87.99
2019-06-10T05:53:42.247Z,89.00
2019-06-10T05:54:42.964Z,89.10
2019-06-10T05:55:42.770Z,88.70
2019-06-10T05:56:43.025Z,89.10
2019-06-10T05:57:42.832Z,89.00
2019-06-10T05:58:43.347Z,89.30
2019-06-10T05:59:43.136Z,88.90
2019-06-10T06:00:42.723Z,89.30
2019-06-10T06:01:42.892Z,89.20
2019-06-10T06:02:43.097Z,89.40
2019-06-10T06:03:40.618Z,89.30
2019-06-10T06:04:42.682Z,89.20
2019-06-10T06:05:40.595Z,89.06
2019-06-10T06:06:42.453Z,88.65
2019-06-10T06:07:42.356Z,89.26
2019-06-10T06:08:42.782Z,88.85
2019-06-10T06:09:42.582Z,88.85
2019-06-10T06:10:42.394Z,87.81
2019-06-10T06:11:42.814Z,87.19
2019-06-10T06:12:42.487Z,86.99
2019-06-10T06:13:42.984Z,86.99
2019-06-10T06:14:42.452Z,87.19
2019-06-10T06:15:42.422Z,87.05
2019-06-10T06:16:42.991Z,86.55
2019-06-10T06:17:42.956Z,86.85
2019-06-10T06:18:42.215Z,86.85
2019-06-10T06:19:43.161Z,86.04
2019-06-10T06:20:40.407Z,85.30
2019-06-10T06:21:47.071Z,85.19
2019-06-10T06:22:42.888Z,85.70
2019-06-10T06:23:40.395Z,85.60
2019-06-10T06:24:42.631Z,85.19
2019-06-10T06:25:44.283Z,85.19
2019-06-10T06:26:43.278Z,85.40
2019-06-10T06:27:42.082Z,85.30
2019-06-10T06:28:42.906Z,84.89
2019-06-10T06:29:42.964Z,85.60
2019-06-10T06:30:42.316Z,85.30
2019-06-10T06:31:42.722Z,85.94
2019-06-10T06:32:40.428Z,85.60
2019-06-10T06:33:42.970Z,85.40
2019-06-10T06:34:40.257Z,85.19
2019-06-10T06:35:45.547Z,85.25
2019-06-10T06:36:42.277Z,85.36
2019-06-10T06:37:42.725Z,84.51
2019-06-10T06:38:40.213Z,84.01
2019-06-10T06:39:42.754Z,83.80
2019-06-10T06:40:40.204Z,83.00
2019-06-10T06:41:42.399Z,83.20
2019-06-10T06:42:40.202Z,83.10
2019-06-10T06:43:44.384Z,82.76
2019-06-10T06:44:40.139Z,82.76
2019-06-10T06:45:42.647Z,82.65
2019-06-10T06:46:42.664Z,82.15
2019-06-10T06:47:40.158Z,82.45
2019-06-10T06:48:41.004Z,82.35
2019-06-10T06:49:42.381Z,81.85
2019-06-10T06:50:59.090Z,81.30
2019-06-10T06:51:51.819Z,81.10
2019-06-10T06:53:15.360Z,80.90
2019-06-10T06:53:50.371Z,81.07
2019-06-10T06:54:42.431Z,80.97
2019-06-10T06:55:40.041Z,80.36
2019-06-10T06:56:41.210Z,79.96
2019-06-10T06:57:40.162Z,80.12
2019-06-10T06:58:40.713Z,79.96
2019-06-10T06:59:40.850Z,79.96
2019-06-10T07:00:57.402Z,80.36
2019-06-10T07:01:44.039Z,80.26
2019-06-10T07:02:40.909Z,80.16
2019-06-10T07:03:41.810Z,80.46
2019-06-10T07:04:40.465Z,80.40
2019-06-10T07:05:41.026Z,80.36
2019-06-10T07:06:40.357Z,80.06
2019-06-10T07:07:41.090Z,80.57
2019-06-10T07:08:41.485Z,80.16
2019-06-10T07:09:41.220Z,80.16
2019-06-10T07:10:41.436Z,79.42
2019-06-10T07:11:41.113Z,79.32
2019-06-10T07:12:41.073Z,78.78
2019-06-10T07:13:43.395Z,78.47
2019-06-10T07:14:44.737Z,78.03
2019-06-10T07:15:42.183Z,78.23
2019-06-10T07:16:44.322Z,78.44
2019-06-10T07:17:45.143Z,78.70
2019-06-10T07:18:48.742Z,78.60
2019-06-10T07:19:42.116Z,78.30
2019-06-10T07:20:40.972Z,77.80
2019-06-10T07:21:57.986Z,76.39
2019-06-10T07:22:42.779Z,75.05
2019-06-10T07:23:45.164Z,75.85
2019-06-10T07:24:43.055Z,76.62
2019-06-10T07:25:46.542Z,76.21
2019-06-10T07:26:45.340Z,75.68
2019-06-10T07:27:45.131Z,76.38
2019-06-10T07:28:45.075Z,75.45
2019-06-10T07:29:46.487Z,74.27
2019-06-10T07:30:47.772Z,74.68
2019-06-10T07:31:43.485Z,74.77
2019-06-10T07:32:41.532Z,74.57
2019-06-10T07:33:43.045Z,74.31
2019-06-10T07:34:42.274Z,74.74
2019-06-10T07:35:41.606Z,75.45
2019-06-10T07:36:40.858Z,75.25
2019-06-10T07:37:41.059Z,75.85
2019-06-10T07:38:41.847Z,75.65
2019-06-10T07:39:41.730Z,76.45
2019-06-10T07:40:39.590Z,76.86
2019-06-10T07:41:39.654Z,76.96
2019-06-10T07:42:39.558Z,76.62
2019-06-10T07:43:42.555Z,76.92
2019-06-10T07:44:43.158Z,76.72
2019-06-10T07:45:41.592Z,76.62
2019-06-10T07:46:43.460Z,76.62
2019-06-10T07:47:41.723Z,76.52
2019-06-10T07:48:41.094Z,76.38
2019-06-10T07:49:39.481Z,75.68
2019-06-10T07:50:39.478Z,75.68
2019-06-10T07:51:39.565Z,75.78
2019-06-10T07:52:39.448Z,75.88
2019-06-10T07:53:40.023Z,75.78
2019-06-10T07:54:39.459Z,75.58
2019-06-10T07:55:39.595Z,75.27
2019-06-10T07:56:45.190Z,75.48
2019-06-10T07:57:43.609Z,75.88
2019-06-10T07:58:40.122Z,75.58
2019-06-10T07:59:39.574Z,76.28
2019-06-10T08:00:40.807Z,75.92
2019-06-10T08:01:48.106Z,76.92
2019-06-10T08:02:42.829Z,76.38
2019-06-10T08:03:39.858Z,76.48
2019-06-10T08:04:39.984Z,76.78
2019-06-10T08:05:40.107Z,77.19
2019-06-10T08:06:39.856Z,76.18
2019-06-10T08:07:39.295Z,76.08
2019-06-10T08:08:39.333Z,76.38
2019-06-10T08:09:39.277Z,76.25
2019-06-10T08:10:39.332Z,75.95
2019-06-10T08:11:39.371Z,75.81
2019-06-10T08:12:39.337Z,74.80
2019-06-10T08:13:39.360Z,75.01
2019-06-10T08:14:39.550Z,74.90
2019-06-10T08:15:39.750Z,74.90
2019-06-10T08:16:39.871Z,74.71
2019-06-10T08:17:40.395Z,74.80
2019-06-10T08:19:07.067Z,74.97
2019-06-10T08:19:45.413Z,73.67
2019-06-10T08:20:43.516Z,73.77
2019-06-10T08:21:40.649Z,73.57
2019-06-10T08:22:49.186Z,73.73
2019-06-10T08:23:41.037Z,73.30
2019-06-10T08:24:39.390Z,72.50
2019-06-10T08:25:40.370Z,71.39
2019-06-10T08:26:39.377Z,72.30
2019-06-10T08:27:40.281Z,72.80
2019-06-10T08:28:39.650Z,71.16
2019-06-10T08:29:39.067Z,71.06
2019-06-10T08:30:39.864Z,70.36
2019-06-10T08:31:39.083Z,71.66
2019-06-10T08:32:40.048Z,70.92
2019-06-10T08:33:39.092Z,70.92
2019-06-10T08:34:42.979Z,70.89
2019-06-10T08:35:48.540Z,69.29
2019-06-10T08:36:42.172Z,68.79
2019-06-10T08:37:40.808Z,67.79
2019-06-10T08:38:40.259Z,68.16
2019-06-10T08:39:40.184Z,68.76
2019-06-10T08:40:40.643Z,68.96
2019-06-10T08:41:39.011Z,68.16
2019-06-10T08:42:39.014Z,67.46
2019-06-10T08:43:38.952Z,67.03
2019-06-10T08:44:38.921Z,66.83
2019-06-10T08:45:38.987Z,67.49
2019-06-10T08:46:38.885Z,67.69
2019-06-10T08:47:39.224Z,67.46
2019-06-10T08:48:39.050Z,66.30
2019-06-10T08:49:39.139Z,66.89
2019-06-10T08:50:39.336Z,67.60
2019-06-10T08:51:39.688Z,67.07
2019-06-10T08:52:56.917Z,67.57
2019-06-10T08:53:42.548Z,66.17
2019-06-10T08:54:41.276Z,66.20
2019-06-10T08:55:42.206Z,66.00
2019-06-10T08:56:40.056Z,66.30
2019-06-10T08:57:42.437Z,67.07
2019-06-10T08:58:40.892Z,66.27
2019-06-10T08:59:39.996Z,65.87
2019-06-10T09:00:40.168Z,64.74
2019-06-10T09:01:39.464Z,64.44
2019-06-10T09:02:40.634Z,65.23
2019-06-10T09:03:40.162Z,65.64
2019-06-10T09:04:39.259Z,65.14
2019-06-10T09:05:39.577Z,65.04
2019-06-10T09:06:50.604Z,65.41
2019-06-10T09:07:49.995Z,65.01
2019-06-10T09:10:02.973Z,64.31
2019-06-10T09:11:12.953Z,63.74
2019-06-10T09:12:03.453Z,64.14
2019-06-10T09:13:02.789Z,65.23
2019-06-10T09:14:02.576Z,65.14
2019-06-10T09:15:13.049Z,65.50
2019-06-10T09:16:16.650Z,65.41
2019-06-10T09:18:23.662Z,65.67
2019-06-10T09:19:23.667Z,65.47
2019-06-10T09:20:23.622Z,65.08
2019-06-10T09:21:23.912Z,64.64
2019-06-10T09:22:23.760Z,64.94
2019-06-10T09:23:25.630Z,62.95
2019-06-10T09:24:23.573Z,63.15
2019-06-10T09:25:23.562Z,62.85
2019-06-10T09:26:23.557Z,62.95
2019-06-10T09:27:26.663Z,63.25
2019-06-10T09:28:23.654Z,63.95
2019-06-10T09:29:33.491Z,63.25
2019-06-10T09:30:23.634Z,61.76
2019-06-10T09:31:33.531Z,62.15
2019-06-10T09:32:32.557Z,61.96
2019-06-10T09:34:43.042Z,62.45
2019-06-10T09:35:50.948Z,62.92
2019-06-10T09:36:51.805Z,63.72
2019-06-10T09:38:33.749Z,62.69
2019-06-10T09:39:48.497Z,62.29
2019-06-10T09:40:34.318Z,62.19
2019-06-10T09:41:41.120Z,61.77
2019-06-10T09:42:34.167Z,62.07
2019-06-10T09:43:46.876Z,62.04
2019-06-10T09:44:34.139Z,60.55
2019-06-10T09:45:45.902Z,60.44
2019-06-10T09:46:33.327Z,60.05
2019-06-10T09:47:34.747Z,60.14
2019-06-10T09:48:33.724Z,61.34
2019-06-10T09:49:33.649Z,60.19
2019-06-10T09:50:33.414Z,58.20
2019-06-10T09:51:33.057Z,58.37
2019-06-10T09:52:33.078Z,57.18
2019-06-10T09:53:41.367Z,56.78
2019-06-10T09:54:34.004Z,57.98
2019-06-10T09:55:33.050Z,57.65
2019-06-10T09:56:33.209Z,56.78
2019-06-10T09:57:33.019Z,57.58
2019-06-10T09:58:33.229Z,56.32
2019-06-10T09:59:33.202Z,56.91
2019-06-10T10:00:48.825Z,58.00
2019-06-10T10:04:02.469Z,57.58
2019-06-10T10:05:12.308Z,58.07
2019-06-10T10:07:04.120Z,57.98
2019-06-10T10:08:12.850Z,57.68
2019-06-10T10:09:12.633Z,58.15
2019-06-10T10:11:21.258Z,58.34
2019-06-10T10:12:22.703Z,57.23
2019-06-10T10:13:35.969Z,55.36
2019-06-10T10:14:30.083Z,55.83
2019-06-10T10:15:31.592Z,55.54
2019-06-10T10:16:22.454Z,55.83
2019-06-10T10:17:23.012Z,55.49
2019-06-10T10:18:23.570Z,55.09
2019-06-10T10:19:23.030Z,55.06
2019-06-10T10:20:22.818Z,54.74
2019-06-10T10:21:22.249Z,54.94
2019-06-10T10:22:22.751Z,53.63
2019-06-10T10:23:22.681Z,53.03
2019-06-10T10:24:22.890Z,53.33
2019-06-10T10:25:20.478Z,51.75
2019-06-10T10:26:20.480Z,52.96
2019-06-10T10:27:20.521Z,52.64
2019-06-10T10:28:23.042Z,54.12
2019-06-10T10:29:21.420Z,53.23
2019-06-10T10:30:20.494Z,53.33
2019-06-10T10:31:23.037Z,51.45
2019-06-10T10:32:22.591Z,52.88
2019-06-10T10:33:23.873Z,53.43
2019-06-10T10:34:23.569Z,55.02
2019-06-10T10:35:20.369Z,56.11
2019-06-10T10:36:22.425Z,55.78
2019-06-10T10:37:22.751Z,55.68
2019-06-10T10:38:22.727Z,55.29
2019-06-10T10:39:22.016Z,55.16
2019-06-10T10:40:32.587Z,55.68
2019-06-10T10:41:23.212Z,56.35
2019-06-10T10:42:41.679Z,55.96
2019-06-10T10:43:28.859Z,56.02
2019-06-10T10:44:21.700Z,55.80
2019-06-10T10:45:22.668Z,54.12
2019-06-10T10:48:14.101Z,52.44
2019-06-10T10:49:14.646Z,52.73
2019-06-10T10:50:13.986Z,52.54
2019-06-10T10:51:13.407Z,52.83
2019-06-10T10:52:13.056Z,52.73
2019-06-10T10:53:13.644Z,53.13
2019-06-10T10:54:28.408Z,53.03
2019-06-10T10:55:14.170Z,53.42
2019-06-10T10:56:13.269Z,53.53
2019-06-10T10:57:13.755Z,54.59
2019-06-10T10:58:13.066Z,53.30
2019-06-10T10:59:13.478Z,52.73
2019-06-10T11:00:13.064Z,53.80
2019-06-10T11:01:15.091Z,53.20
2019-06-10T11:02:13.072Z,52.44
2019-06-10T11:03:13.366Z,52.83
2019-06-10T11:04:13.361Z,53.03
2019-06-10T11:05:12.942Z,52.83
2019-06-10T11:06:23.469Z,53.03
2019-06-10T11:07:13.064Z,52.93
2019-06-10T11:08:14.211Z,53.03
2019-06-10T11:09:13.709Z,52.64
2019-06-10T11:10:13.099Z,53.13
2019-06-10T11:11:23.651Z,53.70
2019-06-10T11:12:12.855Z,52.41
2019-06-10T11:13:12.728Z,51.82
2019-06-10T11:14:14.988Z,51.32
2019-06-10T11:16:33.065Z,51.50
2019-06-10T11:17:43.376Z,50.81
2019-06-10T11:18:30.789Z,50.21
2019-06-10T11:19:32.391Z,49.22
2019-06-10T11:20:33.587Z,49.84
2019-06-10T11:21:32.880Z,50.81
2019-06-10T11:22:32.892Z,50.12
2019-06-10T11:23:34.249Z,49.91
2019-06-10T11:24:37.751Z,50.21
2019-06-10T11:26:43.131Z,49.60
2019-06-10T11:27:43.125Z,49.10
2019-06-10T11:28:42.844Z,49.30
2019-06-10T11:29:42.259Z,49.40
2019-06-10T11:30:42.593Z,49.01
2019-06-10T11:31:42.592Z,49.10
2019-06-10T11:32:43.243Z,49.79
2019-06-10T11:33:43.428Z,48.90
2019-06-10T11:34:42.908Z,49.30
2019-06-10T11:35:42.803Z,49.18
2019-06-10T11:36:42.638Z,50.07
2019-06-10T11:37:42.268Z,50.26
2019-06-10T11:38:41.688Z,49.96
2019-06-10T11:39:41.694Z,48.88
2019-06-10T11:40:42.832Z,49.48
2019-06-10T11:41:52.861Z,49.77
2019-06-10T11:45:10.292Z,48.96
2019-06-10T11:46:19.623Z,49.05
2019-06-10T11:47:19.814Z,48.93
2019-06-10T11:48:10.262Z,47.94
2019-06-10T11:49:12.413Z,47.25
2019-06-10T11:50:12.141Z,47.65
2019-06-10T11:51:12.737Z,48.54
2019-06-10T11:52:12.512Z,47.65
2019-06-10T11:53:12.616Z,47.03
2019-06-10T11:54:12.648Z,45.95
2019-06-10T11:55:18.321Z,46.74
2019-06-10T11:56:13.111Z,46.04
2019-06-10T11:57:12.368Z,45.16
2019-06-10T11:58:10.405Z,45.73
2019-06-10T11:59:13.347Z,45.36
2019-06-10T12:00:14.818Z,45.75
2019-06-10T12:01:12.964Z,45.87
2019-06-10T12:02:10.137Z,46.54
2019-06-10T12:03:10.159Z,45.75
2019-06-10T12:04:17.762Z,45.56
2019-06-10T12:05:12.823Z,45.65
2019-06-10T12:06:10.066Z,46.03
2019-06-10T12:07:10.144Z,44.84
2019-06-10T12:08:12.806Z,45.81
2019-06-10T12:09:10.133Z,45.00
2019-06-10T12:10:12.656Z,45.19
2019-06-10T12:11:12.410Z,45.96
2019-06-10T12:12:12.674Z,45.86
2019-06-10T12:13:10.254Z,44.26
2019-06-10T12:14:19.208Z,43.55
2019-06-10T12:15:18.734Z,43.83
2019-06-10T12:17:14.961Z,43.53
2019-06-10T12:17:40.042Z,43.02
2019-06-10T12:18:13.023Z,43.49
2019-06-10T12:19:12.508Z,43.19
2019-06-10T12:20:13.072Z,42.80
2019-06-10T12:21:12.763Z,43.08
2019-06-10T12:22:10.006Z,42.10
2019-06-10T12:23:09.904Z,41.68
2019-06-10T12:24:12.479Z,41.90
2019-06-10T12:25:30.393Z,41.61
2019-06-10T12:26:10.824Z,41.21
2019-06-10T12:27:09.768Z,42.02
2019-06-10T12:28:09.759Z,41.31
2019-06-10T12:29:12.257Z,42.00
2019-06-10T12:30:09.729Z,42.80
2019-06-10T12:31:13.039Z,41.72
2019-06-10T12:32:09.733Z,41.06
2019-06-10T12:33:09.703Z,43.41
2019-06-10T12:34:12.329Z,43.43
2019-06-10T12:35:22.816Z,43.93
2019-06-10T12:37:28.133Z,44.30
2019-06-10T12:38:37.433Z,43.61
2019-06-10T12:40:44.949Z,43.80
2019-06-10T12:41:55.996Z,44.20
2019-06-10T12:42:45.952Z,43.83
2019-06-10T12:43:44.958Z,43.80
2019-06-10T12:44:57.277Z,43.02
2019-06-10T12:45:45.035Z,44.12
2019-06-10T12:46:44.883Z,41.77
2019-06-10T12:47:44.881Z,41.00
2019-06-10T12:48:44.850Z,42.89
2019-06-10T12:51:07.976Z,44.31
2019-06-10T12:52:12.530Z,45.00
2019-06-10T12:53:06.977Z,44.70
2019-06-10T12:54:05.774Z,45.49
2019-06-10T12:55:03.756Z,44.21
2019-06-10T12:56:09.558Z,44.78
2019-06-10T12:57:05.266Z,45.27
2019-06-10T12:58:04.220Z,44.76
2019-06-10T12:59:06.684Z,45.45
2019-06-10T13:00:15.797Z,45.03
2019-06-10T13:01:05.757Z,44.91
2019-06-10T13:02:21.895Z,44.91
2019-06-10T13:03:05.018Z,43.51
2019-06-10T13:04:05.388Z,43.19
2019-06-10T13:05:06.103Z,42.18
2019-06-10T13:06:06.650Z,41.08
2019-06-10T13:07:05.646Z,40.08
2019-06-10T13:08:13.255Z,40.31
2019-06-10T13:09:13.175Z,39.22
2019-06-10T13:10:12.142Z,38.90
2019-06-10T13:11:02.254Z,37.71
2019-06-10T13:12:02.252Z,37.79
2019-06-10T13:13:05.678Z,38.06
2019-06-10T13:14:06.477Z,37.45
2019-06-10T13:15:04.768Z,35.06